Time;durP1;ratioP1;P1;durP2;ratioP2;P2;SDS_P1;SDS_P2;PMS_P1;PMS_P2;Temp;Humidity;BMP_temperature;BMP_pressure;BME280_temperature;BME280_humidity;BME280_pressure;Samples;Min_cycle;Max_cycle;Signal;HPM_P1;HPM_P2
2023/10/20 00:01:55;;;;;;;17.13;9.95;;;;;;;9.84;100.00;98721.47;5006396;28;20582;-66
2023/10/20 00:04:21;;;;;;;17.75;10.63;;;;;;;9.77;100.00;98728.50;5022782;28;20040;-65
2023/10/20 00:06:47;;;;;;;18.60;10.98;;;;;;;9.76;100.00;98736.63;5055856;28;20049;-64
2023/10/20 00:09:16;;;;;;;16.88;10.23;;;;;;;9.78;100.00;98731.97;5051994;28;20459;-65
2023/10/20 00:11:43;;;;;;;21.42;10.85;;;;;;;9.80;100.00;98733.44;5053429;28;20045;-64
2023/10/20 00:14:09;;;;;;;14.52;10.10;;;;;;;9.77;100.00;98731.16;5037056;28;20072;-65
2023/10/20 00:16:35;;;;;;;18.60;10.38;;;;;;;9.80;100.00;98732.63;5053157;28;20041;-66
2023/10/20 00:19:01;;;;;;;16.73;10.23;;;;;;;9.84;100.00;98726.78;5053202;28;20052;-67
2023/10/20 00:21:29;;;;;;;18.67;11.20;;;;;;;9.90;100.00;98734.03;5020395;28;20052;-67
2023/10/20 00:23:55;;;;;;;18.67;9.65;;;;;;;9.84;100.00;98739.25;5036767;28;20102;-69
2023/10/20 00:26:21;;;;;;;15.60;9.80;;;;;;;9.87;100.00;98734.38;5036738;28;20045;-66
2023/10/20 00:28:49;;;;;;;16.40;9.80;;;;;;;9.83;100.00;98727.78;5036710;28;20045;-67
2023/10/20 00:31:16;;;;;;;18.00;10.43;;;;;;;9.79;100.00;98741.59;5054310;28;20125;-66
2023/10/20 00:33:45;;;;;;;17.77;10.50;;;;;;;9.86;100.00;98734.56;5055120;28;20135;-66
2023/10/20 00:36:12;;;;;;;16.38;9.93;;;;;;;9.85;100.00;98735.56;5022696;28;20053;-66
2023/10/20 00:38:38;;;;;;;15.23;9.32;;;;;;;9.87;100.00;98734.38;5022585;28;20044;-66
2023/10/20 00:41:04;;;;;;;14.55;9.60;;;;;;;9.95;100.00;98736.16;5021697;28;20106;-66
2023/10/20 00:43:38;;;;;;;15.32;9.18;;;;;;;10.17;100.00;98728.25;5035120;28;20143;-66
2023/10/20 00:46:04;;;;;;;16.75;9.13;;;;;;;10.06;100.00;98725.97;4999400;28;20080;-66
2023/10/20 00:48:32;;;;;;;15.10;9.15;;;;;;;10.15;100.00;98732.91;5015038;28;20079;-66
2023/10/20 00:50:59;;;;;;;16.05;9.20;;;;;;;10.17;100.00;98725.59;5015199;28;20164;-67
2023/10/20 00:53:27;;;;;;;18.40;9.90;;;;;;;10.23;100.00;98729.38;4982719;28;20068;-65
2023/10/20 00:55:56;;;;;;;13.68;9.40;;;;;;;10.31;100.00;98728.47;4983151;28;20075;-65
2023/10/20 00:58:25;;;;;;;13.85;9.60;;;;;;;10.34;100.00;98730.78;5031768;28;20569;-65
2023/10/20 01:00:51;;;;;;;14.73;9.40;;;;;;;10.30;100.00;98740.09;5014749;28;20053;-65
2023/10/20 01:03:17;;;;;;;15.00;9.35;;;;;;;10.26;100.00;98739.63;4998399;28;20080;-65
2023/10/20 01:05:43;;;;;;;15.80;9.95;;;;;;;10.24;100.00;98737.16;5031344;28;20127;-65
2023/10/20 01:08:09;;;;;;;19.85;9.30;;;;;;;10.22;100.00;98736.50;4998158;28;20206;-65
2023/10/20 01:10:34;;;;;;;15.25;9.85;;;;;;;10.21;100.00;98742.81;5031001;28;20073;-65
2023/10/20 01:13:00;;;;;;;14.73;9.52;;;;;;;10.16;100.00;98744.34;5031109;28;20037;-65
2023/10/20 01:15:27;;;;;;;15.77;9.80;;;;;;;10.23;100.00;98746.13;5014900;28;20074;-65
2023/10/20 01:17:55;;;;;;;15.60;9.93;;;;;;;10.14;100.00;98741.03;5031532;28;20061;-65
2023/10/20 01:20:20;;;;;;;17.42;9.90;;;;;;;10.13;100.00;98744.72;4981812;28;20033;-65
2023/10/20 01:22:46;;;;;;;19.00;10.02;;;;;;;10.06;100.00;98744.56;5002777;28;20048;-65
2023/10/20 01:25:12;;;;;;;15.35;10.13;;;;;;;10.02;100.00;98737.13;5052248;28;20136;-65
2023/10/20 01:27:38;;;;;;;19.42;11.32;;;;;;;10.03;100.00;98744.91;5035353;28;20102;-65
2023/10/20 01:30:04;;;;;;;20.33;10.70;;;;;;;10.09;100.00;98740.75;5035291;28;20463;-65
2023/10/20 01:32:32;;;;;;;17.00;9.80;;;;;;;10.11;100.00;98739.59;5018862;28;20045;-65
2023/10/20 01:34:58;;;;;;;18.25;9.85;;;;;;;10.15;100.00;98737.38;5052098;28;20048;-65
2023/10/20 01:37:24;;;;;;;15.93;9.95;;;;;;;10.18;100.00;98740.50;5052917;28;20053;-66
2023/10/20 01:39:51;;;;;;;15.27;9.65;;;;;;;10.22;100.00;98739.16;5051444;28;20044;-67
2023/10/20 01:42:16;;;;;;;15.57;10.18;;;;;;;10.27;100.00;98738.63;5034915;28;20160;-65
2023/10/20 01:44:43;;;;;;;15.63;9.43;;;;;;;10.28;100.00;98742.94;5034786;28;20044;-65
2023/10/20 01:47:08;;;;;;;16.35;9.75;;;;;;;10.32;100.00;98746.88;5053483;28;20049;-64
2023/10/20 01:49:35;;;;;;;18.80;10.80;;;;;;;10.35;100.00;98743.06;5051995;28;20045;-65
2023/10/20 01:52:01;;;;;;;15.70;10.00;;;;;;;10.34;100.00;98742.22;5052475;28;20375;-65
2023/10/20 01:54:28;;;;;;;15.73;9.27;;;;;;;10.34;100.00;98752.84;5018501;28;20041;-66
2023/10/20 01:56:53;;;;;;;15.38;9.60;;;;;;;10.36;100.00;98748.19;5051199;28;20049;-67
2023/10/20 01:59:20;;;;;;;14.00;9.35;;;;;;;10.42;100.00;98758.09;5018404;28;20930;-65
2023/10/20 02:01:46;;;;;;;13.65;9.80;;;;;;;10.50;100.00;98749.22;5034483;28;20033;-65
2023/10/20 02:04:12;;;;;;;16.50;10.38;;;;;;;10.42;100.00;98755.44;5050956;28;20056;-65
2023/10/20 02:06:38;;;;;;;18.80;9.93;;;;;;;10.41;100.00;98758.25;5052248;28;20096;-65
2023/10/20 02:09:05;;;;;;;18.15;10.25;;;;;;;10.33;100.00;98755.66;5034349;28;20144;-65
2023/10/20 02:11:32;;;;;;;15.32;9.73;;;;;;;10.25;100.00;98756.56;5051918;28;20094;-65
2023/10/20 02:13:58;;;;;;;17.73;10.57;;;;;;;10.17;100.00;98764.56;5018062;28;20056;-65
2023/10/20 02:16:24;;;;;;;26.65;11.13;;;;;;;10.05;100.00;98764.13;5018074;28;20049;-67
2023/10/20 02:18:50;;;;;;;24.83;11.00;;;;;;;10.02;100.00;98761.81;5033466;28;20040;-65
2023/10/20 02:21:16;;;;;;;24.55;9.93;;;;;;;9.97;100.00;98771.31;5034088;28;20053;-70
2023/10/20 02:23:42;;;;;;;20.38;10.63;;;;;;;9.88;100.00;98765.22;5033948;28;20037;-64
2023/10/20 02:26:09;;;;;;;22.85;12.40;;;;;;;9.87;100.00;98768.88;5034248;28;20445;-65
2023/10/20 02:28:36;;;;;;;21.95;12.02;;;;;;;9.83;100.00;98764.09;5034160;28;20112;-65
2023/10/20 02:31:11;;;;;;;17.38;10.98;;;;;;;9.84;100.00;98760.47;5001640;28;20088;-72
2023/10/20 02:33:39;;;;;;;20.70;11.50;;;;;;;9.68;100.00;98765.84;5018143;28;20112;-65
2023/10/20 02:36:05;;;;;;;24.25;11.52;;;;;;;9.63;100.00;98760.22;5017924;28;20044;-65
2023/10/20 02:38:30;;;;;;;22.73;11.88;;;;;;;9.60;100.00;98758.75;5051727;28;20040;-65
2023/10/20 02:40:56;;;;;;;21.30;10.95;;;;;;;9.58;100.00;98759.94;5051191;28;20593;-65
2023/10/20 02:43:22;;;;;;;15.88;10.13;;;;;;;9.60;100.00;98756.09;5050984;28;20045;-65
2023/10/20 02:45:52;;;;;;;20.65;10.73;;;;;;;9.64;100.00;98760.03;5033565;28;20183;-65
2023/10/20 02:48:19;;;;;;;19.58;10.68;;;;;;;9.67;100.00;98759.69;5033811;28;20045;-66
2023/10/20 02:50:45;;;;;;;17.27;10.63;;;;;;;9.63;100.00;98761.06;5051299;28;20918;-65
2023/10/20 02:53:13;;;;;;;19.17;10.50;;;;;;;9.69;100.00;98752.41;5014851;28;20037;-66
2023/10/20 02:55:43;;;;;;;18.80;10.73;;;;;;;9.83;100.00;98759.63;5049701;28;20048;-65
2023/10/20 02:58:10;;;;;;;17.38;10.95;;;;;;;9.77;100.00;98762.97;5047836;28;20057;-66
2023/10/20 03:00:42;;;;;;;19.52;10.80;;;;;;;9.92;100.00;98763.88;5033144;28;20033;-66
2023/10/20 03:03:11;;;;;;;22.85;11.60;;;;;;;9.83;100.00;98756.97;4996818;28;20487;-66
2023/10/20 03:05:41;;;;;;;18.77;11.25;;;;;;;9.77;100.00;98751.53;5035093;28;21382;-65
2023/10/20 03:08:09;;;;;;;18.38;10.90;;;;;;;9.83;100.00;98756.97;5054425;28;20519;-65
2023/10/20 03:10:36;;;;;;;18.20;10.35;;;;;;;9.86;100.00;98753.97;5023470;28;20041;-66
2023/10/20 03:13:05;;;;;;;17.60;8.93;;;;;;;9.86;100.00;98758.44;5040014;28;20110;-69
2023/10/20 03:15:32;;;;;;;19.13;8.45;;;;;;;9.78;100.00;98761.97;5056952;28;20041;-66
2023/10/20 03:18:00;;;;;;;11.95;7.70;;;;;;;9.68;100.00;98758.72;5040964;28;20040;-67
2023/10/20 03:20:30;;;;;;;15.43;7.82;;;;;;;9.59;100.00;98762.41;5040550;28;20071;-67
2023/10/20 03:22:56;;;;;;;13.25;7.85;;;;;;;9.59;100.00;98762.41;5037610;28;20175;-67
2023/10/20 03:25:22;;;;;;;17.48;6.85;;;;;;;9.53;100.00;98756.97;5023840;28;20135;-68
2023/10/20 03:27:48;;;;;;;15.95;7.50;;;;;;;9.50;100.00;98760.75;5038887;28;20045;-67
2023/10/20 03:30:18;;;;;;;9.23;5.30;;;;;;;9.46;100.00;98763.94;5023015;28;20029;-65
2023/10/20 03:32:48;;;;;;;5.97;4.23;;;;;;;9.52;100.00;98766.72;5054012;28;20052;-66
2023/10/20 03:35:14;;;;;;;7.53;4.22;;;;;;;9.26;100.00;98774.13;5023486;28;20044;-66
2023/10/20 03:37:41;;;;;;;7.10;4.00;;;;;;;9.26;100.00;98770.63;5023453;28;20044;-65
2023/10/20 03:40:13;;;;;;;6.03;3.50;;;;;;;9.21;100.00;98775.63;5039994;28;20055;-65
2023/10/20 03:42:43;;;;;;;5.28;3.53;;;;;;;9.27;100.00;98781.06;5039890;28;20533;-67
2023/10/20 03:45:14;;;;;;;5.03;3.28;;;;;;;9.04;100.00;98781.97;5040517;28;20037;-66
2023/10/20 03:47:43;;;;;;;4.75;2.67;;;;;;;8.99;100.00;98779.00;5023700;28;20446;-67
2023/10/20 03:50:16;;;;;;;4.20;3.05;;;;;;;9.07;100.00;98781.63;5040234;28;20047;-65
2023/10/20 03:52:46;;;;;;;4.05;2.50;;;;;;;9.03;100.00;98783.78;5057093;28;20489;-65
2023/10/20 03:55:15;;;;;;;6.68;2.70;;;;;;;8.93;100.00;98779.69;5056126;28;20037;-64
2023/10/20 03:57:43;;;;;;;2.58;2.30;;;;;;;8.98;100.00;98778.16;5056086;28;20045;-68
2023/10/20 04:00:44;;;;;;;3.55;2.35;;;;;;;9.05;100.00;98795.03;5056048;28;20056;-67
2023/10/20 04:03:03;;;;;;;3.33;2.13;;;;;;;8.87;100.00;98793.59;5055170;28;20144;-67
2023/10/20 04:05:30;;;;;;;3.22;2.38;;;;;;;8.87;100.00;98791.78;5056809;28;20102;-67
2023/10/20 04:07:55;;;;;;;3.83;2.33;;;;;;;8.89;100.00;98795.06;5022352;28;20049;-69
2023/10/20 04:10:21;;;;;;;4.10;2.65;;;;;;;8.88;100.00;98796.06;5003877;28;20102;-69
2023/10/20 04:12:48;;;;;;;3.28;2.30;;;;;;;8.92;100.00;98793.91;5037199;28;20045;-68
2023/10/20 04:15:25;;;;;;;5.00;2.72;;;;;;;8.95;100.00;98794.38;5039530;28;20044;-69
2023/10/20 04:17:51;;;;;;;4.85;2.55;;;;;;;8.93;100.00;98793.75;5051290;28;20135;-70
2023/10/20 04:20:21;;;;;;;3.83;2.38;;;;;;;9.14;100.00;98798.50;5019963;28;20052;-68
2023/10/20 04:22:51;;;;;;;4.13;3.08;;;;;;;9.02;100.00;98787.44;5019700;28;20060;-68
2023/10/20 04:25:22;;;;;;;3.37;2.47;;;;;;;9.15;100.00;98794.88;5036007;28;20045;-69
2023/10/20 04:27:57;;;;;;;;;;;;;;;9.28;100.00;98801.28;5020311;28;20333;-70
2023/10/20 05:08:05;;;;;;;3.67;2.85;;;;;;;9.61;100.00;98808.09;5001656;28;20050;-69
2023/10/20 05:10:32;;;;;;;5.45;2.28;;;;;;;9.54;100.00;98819.56;4943855;28;20042;-68
2023/10/20 05:12:58;;;;;;;4.40;2.20;;;;;;;9.51;100.00;98822.56;4992172;28;20561;-67
2023/10/20 05:15:24;;;;;;;3.05;2.30;;;;;;;9.56;100.00;98825.53;4944181;28;20128;-68
2023/10/20 05:17:50;;;;;;;2.97;2.28;;;;;;;9.59;100.00;98823.38;4992259;28;20132;-68
2023/10/20 05:20:20;;;;;;;2.50;2.30;;;;;;;9.66;100.00;98823.50;4975446;28;20044;-67
2023/10/20 05:22:47;;;;;;;2.88;2.55;;;;;;;9.66;100.00;98829.63;4991717;28;20057;-67
2023/10/20 05:25:16;;;;;;;3.15;2.30;;;;;;;9.59;100.00;98815.44;4975799;28;20038;-67
2023/10/20 05:27:44;;;;;;;3.17;2.45;;;;;;;9.50;100.00;98821.72;4991383;28;20068;-68
2023/10/20 05:30:11;;;;;;;5.13;2.70;;;;;;;9.57;100.00;98822.72;4991111;28;20046;-74
2023/10/20 05:32:38;;;;;;;3.83;2.65;;;;;;;9.63;100.00;98827.31;4975227;28;20065;-67
2023/10/20 05:35:07;;;;;;;4.82;2.85;;;;;;;9.67;100.00;98825.97;4943237;28;20061;-67
2023/10/20 05:37:33;;;;;;;4.15;2.78;;;;;;;9.62;100.00;98823.03;4991313;28;20496;-67
2023/10/20 05:39:59;;;;;;;5.50;2.58;;;;;;;9.79;100.00;98816.63;5017261;28;20059;-67
2023/10/20 05:42:24;;;;;;;3.65;2.60;;;;;;;9.96;100.00;98825.34;5052384;28;20116;-68
2023/10/20 05:47:35;;;;;;;4.93;2.90;;;;;;;10.30;100.00;98830.34;5034916;28;20175;-67
2023/10/20 05:50:02;;;;;;;2.90;2.20;;;;;;;10.45;100.00;98840.03;5018598;28;20543;-68
2023/10/20 05:52:33;;;;;;;2.80;2.38;;;;;;;10.57;100.00;98832.44;5018644;28;20505;-68
2023/10/20 05:55:00;;;;;;;3.30;2.70;;;;;;;10.66;100.00;98828.72;5034877;28;20072;-68
2023/10/20 05:57:26;;;;;;;5.95;3.10;;;;;;;10.76;99.57;98832.81;5018498;28;20037;-68
2023/10/20 05:59:52;;;;;;;5.15;2.80;;;;;;;10.91;99.32;98835.50;5034835;28;20039;-67
2023/10/20 06:02:18;;;;;;;3.97;2.70;;;;;;;10.91;98.68;98835.50;5034670;28;20059;-67
2023/10/20 06:04:44;;;;;;;3.10;2.17;;;;;;;11.01;98.33;98830.78;5002187;28;20044;-67
2023/10/20 06:07:10;;;;;;;7.20;2.95;;;;;;;11.15;97.69;98837.91;5053945;28;20041;-67
2023/10/20 06:09:37;;;;;;;4.55;2.95;;;;;;;11.27;97.03;98834.66;5070894;28;20534;-67
2023/10/20 06:12:06;;;;;;;4.60;2.38;;;;;;;11.33;96.24;98836.56;5054491;28;20916;-68
2023/10/20 06:14:36;;;;;;;5.18;2.67;;;;;;;11.51;95.85;98834.41;5038053;28;20040;-68
2023/10/20 06:17:02;;;;;;;3.45;2.38;;;;;;;11.52;95.32;98836.03;5054191;28;20056;-68
2023/10/20 06:19:31;;;;;;;3.38;2.30;;;;;;;11.51;94.53;98836.22;5054283;28;20056;-68
2023/10/20 06:21:58;;;;;;;5.45;2.65;;;;;;;11.56;93.85;98837.31;5021465;28;20130;-67
2023/10/20 06:24:24;;;;;;;5.53;3.63;;;;;;;11.63;93.45;98832.13;5054332;28;20481;-68
2023/10/20 06:26:50;;;;;;;6.13;3.90;;;;;;;11.60;92.73;98833.28;5070803;28;20066;-67
2023/10/20 06:31:48;;;;;;;8.98;4.50;;;;;;;11.68;91.94;98848.38;5071552;28;20467;-68
2023/10/20 06:36:46;;;;;;;14.88;6.72;;;;;;;11.82;90.88;98843.00;5071627;28;20536;-67
2023/10/20 06:39:15;;;;;;;14.57;5.30;;;;;;;11.84;90.69;98840.16;5038593;28;20036;-68
2023/10/20 06:41:41;;;;;;;13.75;5.70;;;;;;;11.70;90.30;98835.72;5037180;28;20146;-68
2023/10/20 06:44:11;;;;;;;10.35;4.90;;;;;;;11.43;90.65;98849.59;4977611;28;20053;-67
2023/10/20 06:46:38;;;;;;;10.18;4.10;;;;;;;11.14;92.10;98841.59;4993726;28;20054;-68
2023/10/20 06:49:05;;;;;;;8.43;4.13;;;;;;;11.13;93.16;98840.75;4977273;28;20053;-68
2023/10/20 06:51:31;;;;;;;8.60;4.00;;;;;;;11.25;94.71;98841.16;4961657;28;20068;-67
2023/10/20 06:53:58;;;;;;;11.95;4.00;;;;;;;11.37;94.35;98845.84;4977435;28;20405;-67
2023/10/20 06:56:24;;;;;;;9.65;4.70;;;;;;;11.53;92.99;98848.31;4977522;28;20064;-70
2023/10/20 06:58:51;;;;;;;8.00;4.65;;;;;;;11.49;92.30;98840.88;4961280;28;20049;-67
2023/10/20 07:01:18;;;;;;;8.43;4.60;;;;;;;11.51;93.56;98829.09;4977337;28;20048;-68
2023/10/20 07:03:44;;;;;;;6.70;4.30;;;;;;;11.67;92.52;98846.69;4961571;28;20124;-67
2023/10/20 07:06:11;;;;;;;10.77;4.93;;;;;;;11.71;91.49;98854.16;4961189;28;20050;-67
2023/10/20 07:08:37;;;;;;;9.60;4.47;;;;;;;11.82;91.33;98852.84;4961289;28;20056;-68
2023/10/20 07:11:05;;;;;;;6.82;4.82;;;;;;;11.89;90.89;98859.06;4961136;28;20432;-67
2023/10/20 07:13:32;;;;;;;10.43;4.50;;;;;;;11.97;91.60;98860.81;4961221;28;20112;-68
2023/10/20 07:15:58;;;;;;;8.90;4.70;;;;;;;12.08;90.84;98863.84;4945231;28;20152;-68
2023/10/20 07:18:24;;;;;;;7.30;4.47;;;;;;;12.11;89.81;98868.78;4977117;28;20046;-68
2023/10/20 07:20:50;;;;;;;5.90;4.30;;;;;;;12.13;88.80;98887.22;4958829;28;20332;-68
2023/10/20 07:23:18;;;;;;;8.40;5.85;;;;;;;12.22;88.55;98886.09;5021321;28;20045;-68
2023/10/20 07:25:44;;;;;;;11.70;5.60;;;;;;;12.28;89.04;98888.84;5054345;28;20313;-68
2023/10/20 07:28:10;;;;;;;8.57;4.85;;;;;;;12.37;88.67;98889.56;5037257;28;20423;-69
2023/10/20 07:30:37;;;;;;;9.38;4.93;;;;;;;12.52;88.66;98893.84;5037291;28;20040;-68
2023/10/20 07:33:03;;;;;;;10.18;4.70;;;;;;;12.20;87.42;98894.28;5004266;28;20036;-67
2023/10/20 07:35:30;;;;;;;14.52;5.30;;;;;;;11.83;89.40;98894.41;5020686;28;20037;-68
2023/10/20 07:37:57;;;;;;;16.05;5.20;;;;;;;11.95;91.36;98889.47;5037006;28;20044;-67
2023/10/20 07:40:26;;;;;;;9.40;5.25;;;;;;;12.32;89.71;98879.47;5036670;28;20036;-68
2023/10/20 07:42:53;;;;;;;21.15;4.65;;;;;;;12.90;87.54;98886.44;5053786;28;20047;-67
2023/10/20 07:45:19;;;;;;;7.43;4.10;;;;;;;13.11;85.10;98879.28;5053526;28;20052;-71
2023/10/20 07:47:46;;;;;;;6.90;3.90;;;;;;;13.33;83.61;98886.22;5053603;28;20040;-67
2023/10/20 07:50:12;;;;;;;10.73;4.07;;;;;;;13.38;82.77;98889.13;5036613;28;20052;-67
2023/10/20 07:52:38;;;;;;;8.45;4.70;;;;;;;13.46;81.82;98882.84;5055154;28;20048;-68
2023/10/20 07:55:05;;;;;;;6.53;3.65;;;;;;;13.57;80.42;98883.13;5007666;28;20474;-68
2023/10/20 07:57:31;;;;;;;9.02;3.75;;;;;;;13.75;79.81;98882.59;5016398;28;20069;-67
2023/10/20 07:59:57;;;;;;;5.75;3.95;;;;;;;13.86;78.59;98890.06;4999983;28;20063;-68
2023/10/20 08:02:23;;;;;;;11.27;3.83;;;;;;;14.01;77.74;98887.28;4967710;28;20055;-67
2023/10/20 08:04:50;;;;;;;10.38;3.60;;;;;;;14.13;76.68;98891.03;4984538;28;20132;-68
2023/10/20 08:07:16;;;;;;;9.18;3.70;;;;;;;14.05;74.67;98896.53;5000572;28;20352;-68
2023/10/20 08:09:42;;;;;;;8.50;4.22;;;;;;;13.86;74.36;98894.56;4984123;28;20356;-68
2023/10/20 08:12:08;;;;;;;7.53;4.57;;;;;;;13.34;75.54;98885.22;5000002;28;20060;-67
2023/10/20 08:14:35;;;;;;;8.73;4.93;;;;;;;13.10;77.47;98890.94;5016346;28;20045;-68
2023/10/20 08:17:03;;;;;;;8.35;5.10;;;;;;;12.88;77.45;98875.97;4983340;28;20119;-68
2023/10/20 08:19:30;;;;;;;10.68;4.90;;;;;;;12.81;78.76;98877.75;5016043;28;20045;-68
2023/10/20 08:21:56;;;;;;;8.75;5.22;;;;;;;12.54;79.09;98883.81;4999468;28;20117;-68
2023/10/20 08:24:23;;;;;;;7.82;5.05;;;;;;;12.37;80.79;98882.41;4999338;28;20041;-68
2023/10/20 08:26:49;;;;;;;13.32;5.55;;;;;;;12.29;81.72;98877.19;4983228;28;20121;-68
2023/10/20 08:29:16;;;;;;;12.93;5.60;;;;;;;12.41;82.39;98881.00;5049032;28;20072;-67
2023/10/20 08:31:42;;;;;;;11.10;5.07;;;;;;;12.34;82.50;98877.44;5039604;28;20052;-68
2023/10/20 08:34:09;;;;;;;6.78;5.10;;;;;;;12.03;83.23;98874.19;5056162;28;20036;-69
2023/10/20 08:36:35;;;;;;;9.15;5.05;;;;;;;11.81;84.44;98883.94;5073624;28;20194;-68
2023/10/20 08:39:05;;;;;;;10.52;5.10;;;;;;;11.71;85.18;98878.09;5039473;28;20033;-68
2023/10/20 08:41:31;;;;;;;8.75;5.15;;;;;;;11.65;86.38;98873.47;5040136;28;20056;-68
2023/10/20 08:43:57;;;;;;;7.45;5.35;;;;;;;11.74;87.78;98890.19;5056075;28;20051;-67
2023/10/20 08:46:24;;;;;;;10.60;5.88;;;;;;;11.85;88.46;98887.88;5056029;28;20078;-68
2023/10/20 08:48:51;;;;;;;7.63;5.78;;;;;;;11.82;88.98;98896.22;5039849;28;20060;-67
2023/10/20 08:51:17;;;;;;;8.38;5.95;;;;;;;11.91;90.33;98894.31;5006676;28;20139;-67
2023/10/20 08:53:44;;;;;;;11.02;6.03;;;;;;;11.95;91.77;98903.56;5022977;28;20075;-68
2023/10/20 08:56:14;;;;;;;9.48;6.80;;;;;;;12.02;92.92;98893.84;5006739;28;20478;-68
2023/10/20 08:58:41;;;;;;;13.05;7.40;;;;;;;11.99;93.17;98893.38;5056249;28;20060;-67
2023/10/20 09:01:06;;;;;;;10.18;6.60;;;;;;;11.95;94.18;98892.91;5039215;28;20219;-68
2023/10/20 09:03:43;;;;;;;11.52;6.25;;;;;;;12.20;94.89;98885.47;5054853;28;20183;-68
2023/10/20 09:06:14;;;;;;;8.23;5.97;;;;;;;12.01;92.66;98886.84;5055898;28;20102;-67
2023/10/20 09:08:41;;;;;;;11.13;6.18;;;;;;;11.74;91.49;98898.16;5039425;28;20060;-67
2023/10/20 09:11:08;;;;;;;9.23;6.22;;;;;;;11.50;92.31;98899.22;5006259;28;20048;-68
2023/10/20 09:13:37;;;;;;;16.67;7.78;;;;;;;11.40;95.15;98887.19;5073195;28;20048;-67
2023/10/20 09:16:08;;;;;;;13.23;6.93;;;;;;;11.27;96.80;98876.38;5055900;28;20074;-67
2023/10/20 09:18:44;;;;;;;9.73;6.80;;;;;;;11.52;98.66;98886.56;5040457;28;20390;-67
2023/10/20 09:21:18;;;;;;;14.13;9.02;;;;;;;11.65;98.43;98892.09;5073816;28;20105;-67
2023/10/20 09:23:58;;;;;;;22.38;10.23;;;;;;;11.90;97.96;98897.97;5054959;28;20270;-67
2023/10/20 09:26:26;;;;;;;12.65;6.40;;;;;;;11.97;97.37;98904.22;5038851;28;20469;-68
2023/10/20 09:28:54;;;;;;;11.48;7.13;;;;;;;12.19;97.10;98900.63;5038894;28;20052;-67
2023/10/20 09:31:21;;;;;;;9.35;6.15;;;;;;;12.33;96.90;98898.94;5055749;28;20051;-67
2023/10/20 09:33:48;;;;;;;11.63;6.70;;;;;;;12.37;96.30;98902.88;5038824;28;20389;-68
2023/10/20 09:36:14;;;;;;;8.90;6.07;;;;;;;12.39;95.37;98901.69;4994793;28;20062;-67
2023/10/20 09:38:44;;;;;;;9.45;5.75;;;;;;;12.47;94.91;98901.56;4978634;28;20045;-67
2023/10/20 09:41:15;;;;;;;11.38;6.05;;;;;;;12.50;95.13;98908.38;4978728;28;20049;-67
2023/10/20 09:43:49;;;;;;;6.72;4.72;;;;;;;12.47;94.02;98909.53;4994510;28;20046;-68
2023/10/20 09:46:46;;;;;;;6.75;4.65;;;;;;;12.45;91.83;98902.75;4978761;28;20442;-67
2023/10/20 09:49:19;;;;;;;5.00;4.47;;;;;;;12.26;92.94;98906.00;4978384;28;20480;-67
2023/10/20 09:51:46;;;;;;;7.97;4.82;;;;;;;12.18;94.13;98898.94;4978753;28;20034;-67
2023/10/20 09:54:14;;;;;;;11.55;6.03;;;;;;;12.33;95.04;98890.97;4994125;28;20188;-73
2023/10/20 09:56:44;;;;;;;8.88;5.63;;;;;;;12.38;94.68;98889.38;4978391;28;20042;-68
2023/10/20 09:59:18;;;;;;;10.38;5.00;;;;;;;12.30;93.67;98896.66;4978333;28;20046;-68
2023/10/20 10:01:44;;;;;;;7.70;5.75;;;;;;;11.94;93.90;98891.28;4978519;28;20057;-67
2023/10/20 10:04:10;;;;;;;8.35;5.88;;;;;;;11.91;94.69;98894.31;4994483;28;20057;-68
2023/10/20 10:06:38;;;;;;;6.90;4.55;;;;;;;11.46;93.02;98899.75;4978278;28;20144;-70
2023/10/20 10:09:04;;;;;;;9.85;5.35;;;;;;;11.54;94.39;98897.03;5010448;28;20061;-68
2023/10/20 10:11:42;;;;;;;7.22;5.78;;;;;;;11.62;95.16;98895.13;4994310;28;20077;-67
2023/10/20 10:14:18;;;;;;;7.53;5.30;;;;;;;11.71;95.18;98893.22;5037061;28;20143;-68
2023/10/20 10:16:55;;;;;;;6.97;4.72;;;;;;;11.75;94.21;98886.50;5021530;28;20044;-68
2023/10/20 10:19:26;;;;;;;5.20;4.22;;;;;;;11.33;94.70;98884.41;5037390;28;20067;-67
2023/10/20 10:21:59;;;;;;;5.53;4.15;;;;;;;10.94;95.21;98890.94;5054679;28;20048;-69
2023/10/20 10:24:25;;;;;;;5.05;2.75;;;;;;;10.62;94.37;98892.00;5022357;28;20090;-68
2023/10/20 10:27:06;;;;;;;5.10;2.60;;;;;;;10.73;92.57;98898.72;5037921;28;20040;-67
2023/10/20 10:29:58;;;;;;;5.78;2.63;;;;;;;10.52;91.16;98890.59;5005151;28;20131;-67
2023/10/20 10:32:31;;;;;;;3.67;2.70;;;;;;;10.33;91.03;98893.69;5039045;28;20052;-66
2023/10/20 10:34:58;;;;;;;3.70;2.72;;;;;;;10.30;89.13;98901.97;5039103;28;20240;-66
2023/10/20 10:37:28;;;;;;;4.43;3.00;;;;;;;10.64;89.99;98900.59;5070973;28;20052;-69
2023/10/20 10:40:12;;;;;;;3.55;2.50;;;;;;;10.92;88.55;98901.72;5072013;28;20079;-66
2023/10/20 10:42:46;;;;;;;3.58;2.70;;;;;;;11.29;88.83;98911.53;5071630;28;20440;-66
2023/10/20 10:45:34;;;;;;;4.60;4.07;;;;;;;11.57;87.14;98902.81;5037367;28;20382;-66
2023/10/20 10:48:08;;;;;;;6.63;4.05;;;;;;;11.85;85.38;98897.72;5037536;28;20056;-67
2023/10/20 10:50:56;;;;;;;3.97;2.92;;;;;;;12.02;83.90;98907.16;5020934;28;20048;-69
2023/10/20 10:53:26;;;;;;;7.30;3.03;;;;;;;12.22;82.93;98907.41;5070497;28;20463;-67
2023/10/20 10:55:51;;;;;;;8.25;3.55;;;;;;;12.39;82.91;98909.69;5053736;28;20446;-66
2023/10/20 10:58:17;;;;;;;8.38;3.30;;;;;;;12.71;81.38;98905.72;5053675;28;20106;-67
2023/10/20 11:00:44;;;;;;;7.68;3.83;;;;;;;13.06;80.27;98896.88;5038012;28;20048;-66
2023/10/20 11:03:13;;;;;;;10.07;3.90;;;;;;;13.25;79.00;98913.03;5053961;28;20133;-65
2023/10/20 11:05:39;;;;;;;6.68;3.50;;;;;;;13.32;77.69;98913.09;5037504;28;20051;-65
2023/10/20 11:08:09;;;;;;;4.97;3.55;;;;;;;13.55;77.14;98913.66;5020550;28;20049;-65
2023/10/20 11:10:43;;;;;;;5.80;3.97;;;;;;;13.76;75.96;98910.13;5020725;28;20044;-65
2023/10/20 11:13:16;;;;;;;6.10;3.40;;;;;;;14.00;75.61;98921.16;5037826;28;20036;-65
2023/10/20 11:15:43;;;;;;;9.05;3.47;;;;;;;13.83;73.85;98921.66;5071203;28;20056;-65
2023/10/20 11:18:10;;;;;;;5.43;2.90;;;;;;;13.91;74.42;98921.50;5021177;28;20101;-65
2023/10/20 11:20:45;;;;;;;3.58;2.70;;;;;;;14.03;73.88;98920.78;5036845;28;20497;-65
2023/10/20 11:23:12;;;;;;;3.92;2.95;;;;;;;13.64;74.32;98920.50;5054273;28;20037;-65
2023/10/20 11:25:42;;;;;;;9.02;3.20;;;;;;;13.58;74.16;98919.44;4961062;28;20172;-65
2023/10/20 11:28:08;;;;;;;3.95;2.80;;;;;;;13.60;73.88;98916.59;4996311;28;20054;-66
2023/10/20 11:30:38;;;;;;;4.50;3.00;;;;;;;13.78;74.01;98916.91;4980917;28;20081;-66
2023/10/20 11:33:04;;;;;;;5.95;2.95;;;;;;;13.62;72.74;98914.56;4958234;28;20051;-65
2023/10/20 11:35:30;;;;;;;7.90;3.30;;;;;;;13.55;72.24;98898.50;4974604;28;20054;-66
2023/10/20 11:37:59;;;;;;;6.30;3.58;;;;;;;13.71;72.86;98896.53;4974548;28;20379;-65
2023/10/20 11:40:28;;;;;;;5.53;3.45;;;;;;;13.46;73.28;98904.16;4958335;28;20073;-67
2023/10/20 11:42:55;;;;;;;7.30;3.47;;;;;;;13.49;73.86;98896.63;4973902;28;20100;-65
2023/10/20 11:45:22;;;;;;;6.95;3.65;;;;;;;13.42;73.95;98887.72;4974156;28;20698;-69
2023/10/20 11:47:48;;;;;;;8.40;3.72;;;;;;;13.37;74.55;98908.00;4941870;28;20223;-65
2023/10/20 11:50:15;;;;;;;5.80;3.70;;;;;;;13.32;74.59;98900.59;4887961;29;20056;-65
2023/10/20 11:52:42;;;;;;;7.90;3.75;;;;;;;13.42;75.09;98913.59;4903286;29;20063;-66
2023/10/20 11:55:10;;;;;;;7.45;4.10;;;;;;;13.40;75.61;98915.63;4934880;29;20055;-66
2023/10/20 11:57:37;;;;;;;8.93;4.47;;;;;;;13.33;75.98;98899.56;4934824;29;20059;-66
2023/10/20 12:00:13;;;;;;;5.75;3.28;;;;;;;13.36;76.63;98893.03;4935053;29;20092;-66
2023/10/20 12:02:41;;;;;;;5.72;3.72;;;;;;;13.24;77.42;98895.38;4934024;29;20063;-65
2023/10/20 12:05:08;;;;;;;6.75;3.60;;;;;;;13.20;77.58;98895.97;4935371;29;20199;-66
2023/10/20 12:07:35;;;;;;;7.03;3.80;;;;;;;13.13;78.38;98895.91;4903803;29;20558;-66
2023/10/20 12:10:00;;;;;;;8.48;4.07;;;;;;;12.98;79.62;98889.78;4989051;28;20122;-65
2023/10/20 12:12:26;;;;;;;7.28;5.03;;;;;;;12.83;80.51;98902.38;4999698;28;20049;-65
2023/10/20 12:14:53;;;;;;;8.15;5.03;;;;;;;12.80;81.51;98899.25;5016074;28;20111;-66
2023/10/20 12:17:19;;;;;;;10.98;5.38;;;;;;;12.48;81.80;98897.91;4999504;28;20041;-67